Terminal Aerodrome Forecast
Issued by NWS Sioux Falls, SD

Home | Current Version | Previous Version | Graphics & Text | Print | Product List | Glossary On
Versions: 1 2 3 4 5 6 7 8 9 10 11
640
FTUS43 KFSD 271129
TAFHON
TAF
KHON 271129Z 2712/2812 16009KT P6SM SCT250
     FM271400 17013KT P6SM SCT250
     FM271700 17019G28KT P6SM SCT200
     FM272300 16018G26KT P6SM BKN090
     FM280200 16014G23KT P6SM OVC090
      TEMPO 2802/2805 4SM TSRA BKN045CB
     FM281000 22009KT P6SM BKN200=

USA.gov is the U.S. government's official web portal to all federal, state and local government web resources and services.